Station: Ongerup  

  Atmospheric Gas Attenuation - ITU Rec 676-11   ----------------- dB/100km -----------------
Date Time Temp RH % AH g/m3 Dew Point Wind Direction Speed kph Gust kph Barometer mB Rainfall Since 9am 24GHz 47GHz 76GHz 122GHz 134GHz 241GHz
01/09 09:00 10.5 91 8.83 9.1 2 1024.1 3 20.2 27.7 43.0 112.7 106.8 367.5
27/08 09:00 10 100 9.4 10 13 1021.4 18 21.5 28.7 45.6 119.8 115.4 397.5
26/08 09:00 16.5 71 9.97 11.2 9 1015.7 0 22.4 27.4 44.0 115.7 113.1 390.4
25/08 09:00 11 82 8.21 8 28 1020.4 0 18.9 26.3 39.9 104.7 97.3 334.2
20/08 09:00 10.2 90 8.57 8.6 19 1025.7 0 19.7 27.4 42.1 110.4 103.7 356.6
19/08 09:00 12.5 76 8.36 8.5 19 1018.6 0.2 19.1 26.1 39.7 104.1 97.3 334.4
18/08 09:00 9 84 7.41 6.4 4 1018.9 4 17.3 25.5 37.6 98.3 88.7 303.9
14/08 09:00 7.5 93 7.45 6.4 6 1028.6 0 17.4 26.4 38.9 101.7 91.8 314.2
13/08 09:00 11.5 76 7.85 7.4 4 1030.2 0 18.1 26.0 38.7 101.1 92.6 317.7
11/08 09:00 6 97 7.04 5.6 19 1021 11 16.6 25.9 37.5 98.2 87.2 298.2
07/08 09:00 12 88 9.38 10.1 20 1021.2 0.2 21.3 28.0 44.4 116.5 112.2 386.3
06/08 09:00 11.5 70 7.23 6.3 9 1017.7 0 16.8 24.5 35.6 93.2 83.5 285.9
05/08 09:00 10.9 89 8.85 9.1 1021.4 0.1 20.3 27.5 42.7 112.1 106.3 365.8
04/08 09:00 14 78 9.41 10.2 9 1015.9 0.4 21.3 27.3 43.1 113.3 109.2 376.3
29/07 09:00 6.5 100 7.5 6.5 9 1029.6 0.2 17.6 26.9 39.6 103.7 93.8 321.1
28/07 09:00 10.5 81 7.86 7.4 9 1031.2 2 18.1 26.3 39.2 102.6 94.0 322.5
24/07 09:00 5 69 4.69 -0.2 19 1014.8 0 11.6 22.1 28.2 73.3 56.4 190.1
23/07 09:00 5 69 4.69 -0.2 4 1033.5 0 11.6 22.8 28.9 74.9 57.4 193.3
22/07 09:00 6.5 100 7.5 6.5 13 1036 2 17.6 27.1 39.9 104.4 94.3 322.7
17/07 09:00 13 93 10.55 11.9 0 1017.9 2 23.8 29.6 48.6 128.0 126.9 437.9
09/07 09:00 9 87 7.67 6.9 9 1022.5 0.2 17.8 26.1 38.8 101.6 92.5 317.2
08/07 09:00 10 87 8.18 7.9 9 1024.8 0.4 18.9 26.8 40.5 106.2 98.5 338.2
01/07 09:00 11 87 8.71 9 15 1010.7 2 20.0 26.8 41.6 109.2 103.3 355.4
16/06 09:00 9 95 8.38 8.2 9 1024.7 2 19.3 27.4 41.9 109.8 102.6 352.4
12/06 09:00 11.3 87 8.88 9.3 19 1016.1 0 20.3 27.2 42.4 111.3 105.7 363.8
11/06 09:00 11.5 88 9.09 9.6 0 1012.7 0.2 20.8 27.4 43.0 113.0 108.1 372.0
09/06 09:00 9 93 8.2 8 28 1007.9 0 19.0 26.4 40.3 105.9 98.7 338.9
02/06 09:00 11 82 8.21 8 37 1014.5 0 18.9 26.1 39.7 104.1 96.8 332.6
27/05 09:00 14.5 48 5.97 3.7 19 1017.5 0 14.0 21.8 29.7 77.3 65.0 221.5
26/05 09:00 11.5 64 6.61 5 19 1024.1 0 15.4 23.8 33.5 87.4 76.0 259.4
20/05 09:00 14 42 5.07 1.4 9 1018.9 0 12.1 20.7 26.7 69.4 54.9 186.0
14/05 09:00 14 100 12.06 14 4 1015.1 0 27.0 31.8 54.6 143.8 146.8 507.7
13/05 09:00 15.8 37 4.98 1.4 19 1018.8 0 11.8 20.2 25.8 67.1 52.7 178.4
08/05 09:00 14.5 58 7.21 6.5 28 1033.8 0 16.6 24.3 34.9 91.1 81.2 278.1
06/05 09:00 14.5 62 7.71 7.4 9 1032.2 0 17.6 25.0 36.8 96.1 87.5 300.0
01/05 09:00 8.7 84 7.27 6.1 28 1019.2 0 17.0 25.4 37.1 97.2 87.2 298.5
29/04 09:00 15 98 12.57 14.7 9 1016.2 0.3 28.0 32.4 56.2 148.2 152.6 527.8
23/04 09:00 15 65 8.33 8.6 41 1008.6 0 19.0 24.9 37.9 99.6 93.0 319.9
22/04 09:00 12 56 5.97 3.6 37 1019.5 0 14.1 22.5 30.7 80.0 67.2 228.8
17/04 09:00 21.5 59 11.12 13.2 9 1010.7 0 24.5 27.5 45.6 120.0 120.3 416.1
14/04 09:00 19.1 67 10.98 12.8 9 1023.4 0 24.4 28.5 47.0 123.6 123.4 426.6
11/04 09:00 16.5 55 7.72 7.6 9 1024.7 0 17.6 24.2 35.6 93.1 84.9 291.3
10/04 09:00 16.7 52 7.39 6.9 6 1025.4 0 16.9 23.7 34.3 89.6 80.6 276.4
08/04 09:00 17.5 52 7.75 7.5 28 1014.3 0 17.6 23.6 34.8 91.3 83.4 286.5
02/04 09:00 18 66 10.14 11.7 6 1023.1 0.2 22.6 27.5 44.2 116.2 113.9 393.1
25/03 09:00 18.1 57 8.81 9.4 9 1020.8 0 19.8 25.3 38.8 101.8 96.4 331.8
18/03 09:00 23 52 10.69 12.8 9 1017.4 0 23.5 26.6 43.4 114.1 113.2 391.4
13/03 09:00 16.5 75 10.53 12 28 1022 2 23.6 28.6 46.6 122.6 121.3 418.9
11/03 09:00 13.5 97 11.35 13 11 1021.7 2 25.5 31.0 52.1 137.0 138.0 476.8
10/03 09:00 16 74 10.08 11.4 6 1014.6 0 22.6 27.7 44.7 117.5 115.3 397.8
06/03 09:00 21 61 11.17 13.2 19 1015.1 0 24.7 27.9 46.3 121.8 122.1 422.4
05/03 09:00 20.9 61 11.11 13.3 0 1015.8 0 24.5 27.9 46.1 121.4 121.6 420.5
04/03 09:00 21 61 11.17 13.2 9 1017.5 0 24.7 28.0 46.4 122.0 122.4 423.2
03/03 09:00 21 61 11.17 13.2 9 1017.7 0 24.7 28.0 46.4 122.1 122.4 423.3
27/02 09:00 24 54 11.75 14.3 4 1009.8 0 25.7 27.7 46.5 122.6 124.4 430.6
25/02 09:00 23.8 46 9.89 11.7 19 1013.8 0 21.8 25.1 39.8 104.6 102.0 352.2
24/02 09:00 19.5 59 9.9 11.4 9 1016 0 22.1 26.4 42.1 110.7 108.0 372.8
21/02 09:00 21.1 46 8.47 9 9 1007.7 0 19.0 23.5 35.6 93.5 87.7 302.0
18/02 09:00 19.8 65 11.1 13.2 9 1015.2 0 24.6 28.2 46.7 122.9 123.1 425.7
17/02 09:00 18.5 49 7.75 7.6 0 1016.2 0 17.6 23.4 34.5 90.3 82.5 283.4
13/02 09:00 18.6 57 9.07 9.9 9 1016.7 0 20.3 25.4 39.4 103.4 98.7 340.1
12/02 09:00 16.5 75 10.53 12 9 1021.7 0 23.6 28.6 46.6 122.6 121.3 418.8
11/02 09:00 17.5 57 8.5 8.9 19 1021.3 12 19.2 25.0 38.0 99.5 93.2 320.7
10/02 09:00 17 99 14.32 16.8 9 1011.8 4 31.7 34.7 62.5 164.9 174.0 603.0
06/02 09:00 24.5 40 8.95 10.2 9 1018.5 0 19.8 23.7 36.3 95.2 90.4 311.6
04/02 09:00 16 97 13.22 15.5 9 1017.6 0 29.4 33.3 58.5 154.3 160.4 555.2
03/02 09:00 20 77 13.31 15.9 28 1013.1 0 29.3 31.8 55.7 146.9 152.9 529.6
30/01 09:00 30 38 11.53 14.5 28 1014.7 0 24.9 25.8 42.6 112.2 113.1 392.0
29/01 09:00 23.5 40 8.46 9.2 9 1016.5 0 18.8 23.2 34.9 91.5 85.6 294.9
28/01 09:00 19.1 43 7.05 6.2 28 1017.8 0 16.1 22.3 31.8 83.1 73.7 252.7
27/01 09:00 19 52 8.47 9 2 1015.3 0 19.1 24.3 36.9 96.7 90.6 311.9
20/01 09:00 23.6 35 7.44 7.6 9 1018.3 6 16.7 21.8 31.4 82.2 74.1 254.4
16/01 09:00 22.8 57 11.58 13.8 9 1007.2 0.2 25.4 27.7 46.5 122.4 123.8 428.7
15/01 09:00 21 51 9.34 10.7 28 1016.5 0 20.8 25.1 39.3 103.0 99.0 341.6
14/01 09:00 20.2 60 10.49 12.3 19 1018.7 0 23.3 27.2 44.2 116.2 114.8 396.8
13/01 09:00 19.5 90 15.1 17.9 19 1013 1 33.1 35.2 64.1 169.2 180.1 624.5
09/01 09:00 18.1 45 6.95 6 19 1018.2 0 15.9 22.4 31.9 83.2 73.5 251.8
08/01 09:00 23 44 9.04 10.2 9 1013.4 0 20.1 24.0 37.1 97.3 92.7 319.8
19/12 09:00 22.5 61 12.18 14.6 28 1014.1 0 26.7 29.0 49.4 130.0 132.9 460.1
18/12 09:00 17.7 77 11.62 13.7 0 1019.7 0.2 25.8 29.9 50.4 132.6 134.2 463.9
16/12 09:00 33.8 57 21.17 24.2 9 1006.9 3 44.6 39.6 77.7 205.9 229.5 798.3
12/12 09:00 21 53 9.71 11.1 19 1016.5 0 21.6 25.7 40.6 106.8 103.6 357.6
10/12 09:00 19 63 10.27 11.8 9 1017.8 0 22.9 27.2 43.9 115.5 113.7 392.5
04/12 09:00 19 65 10.59 12.3 9 1014.1 0 23.6 27.6 45.0 118.5 117.5 406.0
03/12 09:00 22.8 66 13.41 16.3 19 1011.5 0 29.3 30.9 54.1 142.6 148.6 514.9
02/12 09:00 14.5 94 11.69 13.6 19 1012.5 0 26.2 30.9 52.4 138.1 140.1 484.5
25/11 09:00 15.5 59 7.8 7.6 19 1010 8 17.8 24.0 35.7 93.7 85.9 294.8
20/11 09:00 15 94 12.05 14.1 9 1013.6 4 26.9 31.4 53.7 141.6 144.6 500.0
18/11 09:00 20 60 10.37 12 9 1015.7 0 23.0 27.0 43.7 114.9 113.3 391.4
14/11 09:00 16.5 56 7.86 7.7 9 1012.2 0 17.9 23.9 35.6 93.3 85.7 294.3
11/11 09:00 16.2 63 8.69 9.1 9 1025 0 19.7 25.8 39.5 103.5 97.5 335.6
04/11 09:00 1013.1
29/10 09:00 21 93 17.03 19.9 9 1005.7 0 37.2 37.8 71.3 188.6 204.7 710.4
24/10 09:00 19 51 8.31 8.6 28 1004.6 0.6 18.7 23.7 35.9 94.1 87.9 302.4
21/10 09:00 14.5 62 7.71 7.3 19 1014.3 3 17.7 24.3 36.0 94.3 86.1 295.6
16/10 09:00 17 75 10.85 12.5 9 1017.9 0 24.2 28.8 47.5 124.9 124.5 430.2
14/10 09:00 20.5 52 9.25 10.5 9 1015.5 0 20.6 25.1 39.1 102.7 98.5 339.5
10/10 09:00 16 46 6.27 4.4 9 1018.2 0 14.5 21.9 30.2 78.8 67.4 229.9
07/10 09:00 14.5 58 7.21 6.3 28 1019.1 4 16.6 23.7 34.3 89.7 80.2 274.8
01/10 09:00 13.9 60 7.19 6.3 9 1021.9 0 16.6 24.0 34.6 90.4 80.8 276.6

Last Refresh: 01-Sep-2026 15:30:01

Bureau of Meteorology